Time;durP1;ratioP1;P1;durP2;ratioP2;P2;SDS_P1;SDS_P2;PMS_P1;PMS_P2;Temp;Humidity;BMP_temperature;BMP_pressure;BME280_temperature;BME280_humidity;BME280_pressure;Samples;Min_cycle;Max_cycle;Signal;HPM_P1;HPM_P2
2021/12/28 00:00:31;;;;;;;43.83;29.57;;;3.80;99.90;;;2.40;100.00;96665.56;5028068;28;20458;-68
2021/12/28 00:02:59;;;;;;;41.90;27.43;;;3.90;99.90;;;2.33;100.00;96657.50;5028106;28;20550;-69
2021/12/28 00:05:28;;;;;;;41.27;26.17;;;3.80;99.90;;;2.40;100.00;96650.38;5027131;28;20471;-70
2021/12/28 00:07:55;;;;;;;42.50;28.43;;;3.90;99.90;;;2.37;100.00;96647.28;5021656;28;20562;-69
2021/12/28 00:10:22;;;;;;;44.80;26.97;;;3.90;99.90;;;2.42;100.00;96647.50;5025625;28;20479;-70
2021/12/28 00:12:50;;;;;;;41.40;26.57;;;3.90;99.90;;;2.40;100.00;96649.56;5029165;28;20469;-70
2021/12/28 00:15:43;;;;;;;35.67;23.93;;;3.90;99.90;;;2.55;100.00;96652.91;5025590;28;20494;-68
2021/12/28 00:18:10;;;;;;;45.43;26.90;;;4.00;99.90;;;2.56;100.00;96656.38;5025424;28;20467;-70
2021/12/28 00:20:40;;;;;;;38.00;24.80;;;4.10;99.90;;;2.57;100.00;96667.91;5026174;28;21699;-67
2021/12/28 00:23:13;;;;;;;39.27;24.80;;;4.10;99.90;;;2.58;100.00;96656.22;5026787;28;20477;-70
2021/12/28 00:25:40;;;;;;;37.50;24.87;;;4.10;99.90;;;2.66;100.00;96658.72;5025489;28;20489;-69
2021/12/28 00:28:07;;;;;;;37.67;24.17;;;4.20;99.90;;;2.68;100.00;96656.66;5026350;28;20454;-69
2021/12/28 00:30:36;;;;;;;40.83;25.50;;;4.10;99.90;;;2.67;100.00;96657.69;5025422;28;20465;-72
2021/12/28 00:33:04;;;;;;;32.00;23.20;;;4.20;99.90;;;2.72;100.00;96651.75;5041149;28;20985;-67
2021/12/28 00:35:34;;;;;;;37.33;24.07;;;4.20;99.90;;;2.79;100.00;96655.28;5026170;28;20563;-67
2021/12/28 00:38:02;;;;;;;36.70;23.60;;;4.20;99.90;;;2.73;100.00;96651.56;5024863;28;20450;-68
2021/12/28 00:40:29;;;;;;;37.77;25.70;;;4.20;99.90;;;2.77;100.00;96652.78;5027435;28;20459;-69
2021/12/28 00:42:56;;;;;;;35.17;23.63;;;4.30;99.90;;;2.77;100.00;96636.78;5027490;28;20487;-68
2021/12/28 00:45:23;;;;;;;37.73;23.17;;;4.30;99.90;;;2.78;100.00;96654.44;5026338;28;20498;-68
2021/12/28 00:47:52;;;;;;;33.97;22.10;;;4.30;99.90;;;2.61;100.00;96637.97;5027582;28;20465;-65
2021/12/28 00:50:20;;;;;;;34.00;24.47;;;4.20;99.90;;;2.74;100.00;96645.19;5028076;28;20495;-72
2021/12/28 00:52:47;;;;;;;35.13;23.30;;;4.30;99.90;;;2.89;100.00;96645.06;5028586;28;20481;-71
2021/12/28 00:55:18;;;;;;;34.70;22.17;;;4.30;99.90;;;2.91;100.00;96636.84;5031012;28;20485;-67
2021/12/28 00:57:46;;;;;;;33.00;23.20;;;4.30;99.90;;;2.73;100.00;96638.22;5028327;28;20977;-70
2021/12/28 01:00:18;;;;;;;38.00;25.00;;;4.30;99.90;;;2.91;100.00;96647.50;5031184;28;20520;-68
2021/12/28 01:02:45;;;;;;;38.93;24.67;;;4.40;99.90;;;2.88;100.00;96647.91;5029617;28;20470;-71
2021/12/28 01:05:14;;;;;;;33.07;21.70;;;4.30;99.90;;;2.92;100.00;96647.31;5033115;28;20536;-68
2021/12/28 01:07:42;;;;;;;32.80;23.20;;;4.40;99.90;;;2.73;100.00;96645.38;5030168;28;20508;-73
2021/12/28 01:10:14;;;;;;;36.03;22.80;;;4.30;99.90;;;2.84;100.00;96642.16;5030541;28;20893;-72
2021/12/28 01:12:41;;;;;;;31.80;22.90;;;4.30;99.90;;;2.86;100.00;96644.63;5045860;28;20910;-67
2021/12/28 01:15:10;;;;;;;32.60;22.73;;;4.30;99.90;;;2.75;100.00;96622.03;5029535;28;20555;-68
2021/12/28 01:17:38;;;;;;;32.97;21.43;;;4.30;99.90;;;2.81;100.00;96630.06;5027053;28;20546;-68
2021/12/28 01:20:09;;;;;;;34.27;23.60;;;4.40;99.90;;;2.94;100.00;96633.75;5027604;28;20465;-69
2021/12/28 01:22:39;;;;;;;34.90;22.67;;;4.40;99.90;;;2.94;100.00;96641.78;5031706;28;20553;-72
2021/12/28 01:25:09;;;;;;;31.80;22.03;;;4.40;99.90;;;2.90;100.00;96624.53;5030113;28;20503;-68
2021/12/28 01:27:36;;;;;;;35.30;23.90;;;4.40;99.90;;;2.92;100.00;96643.81;5045468;28;20501;-69
2021/12/28 01:30:07;;;;;;;34.37;23.00;;;4.40;99.90;;;3.01;100.00;96644.47;5028657;28;21174;-68
2021/12/28 01:32:35;;;;;;;32.90;21.60;;;4.40;99.90;;;2.98;100.00;96643.03;5030097;28;20474;-67
2021/12/28 01:35:02;;;;;;;31.10;21.23;;;4.40;99.90;;;3.04;100.00;96631.53;5031192;28;20547;-72
2021/12/28 01:37:29;;;;;;;29.83;22.23;;;4.50;99.90;;;2.98;100.00;96637.69;5026747;28;20573;-71
2021/12/28 01:39:57;;;;;;;30.60;20.63;;;4.50;99.90;;;2.94;100.00;96647.09;5032610;28;20958;-66
2021/12/28 01:42:24;;;;;;;28.13;20.33;;;4.40;99.90;;;3.06;100.00;96653.50;5030470;28;20469;-68
2021/12/28 01:44:51;;;;;;;30.67;21.20;;;4.50;99.90;;;3.18;100.00;96650.25;5029729;28;20494;-71
2021/12/28 01:47:18;;;;;;;29.67;21.47;;;4.60;99.90;;;3.16;100.00;96644.31;5030424;28;20486;-68
2021/12/28 01:49:46;;;;;;;33.27;21.80;;;4.60;99.90;;;3.15;100.00;96621.31;5028268;28;20498;-72
2021/12/28 01:52:14;;;;;;;30.73;20.70;;;4.60;99.90;;;3.20;100.00;96624.19;5030079;28;20474;-67
2021/12/28 01:54:42;;;;;;;28.20;20.80;;;4.60;99.90;;;3.24;100.00;96622.75;5027430;28;20466;-67
2021/12/28 01:57:10;;;;;;;31.67;21.20;;;4.70;99.90;;;3.19;100.00;96619.88;5029590;28;20459;-67
2021/12/28 01:59:37;;;;;;;29.93;21.73;;;4.60;99.90;;;3.15;100.00;96626.66;5030141;28;20554;-67
2021/12/28 02:02:05;;;;;;;25.60;18.27;;;4.60;99.90;;;3.09;100.00;96610.41;5028786;28;20472;-69
2021/12/28 02:04:32;;;;;;;30.63;21.43;;;4.60;99.90;;;3.07;100.00;96598.31;5027182;28;20466;-71
2021/12/28 02:06:59;;;;;;;30.07;21.03;;;4.60;99.90;;;3.15;100.00;96599.97;5029195;28;20967;-69
2021/12/28 02:09:26;;;;;;;26.73;20.10;;;4.60;99.90;;;2.99;100.00;96601.97;5029701;28;20474;-69
2021/12/28 02:11:54;;;;;;;25.77;18.57;;;4.50;99.90;;;2.85;100.00;96598.44;5029189;28;20557;-66
2021/12/28 02:14:22;;;;;;;26.20;19.47;;;4.40;99.90;;;2.77;100.00;96602.13;5026641;28;20554;-70
2021/12/28 02:16:50;;;;;;;29.70;20.97;;;4.30;99.90;;;2.74;100.00;96594.50;5027100;28;20923;-66
2021/12/28 02:19:18;;;;;;;27.60;21.20;;;4.20;99.90;;;2.65;100.00;96595.69;5026779;28;20466;-70
2021/12/28 02:21:47;;;;;;;30.27;20.37;;;4.10;99.90;;;2.61;100.00;96594.47;5044244;28;21113;-67
2021/12/28 02:24:14;;;;;;;26.77;21.23;;;4.10;99.90;;;2.48;100.00;96597.91;5030100;28;20463;-68
2021/12/28 02:26:41;;;;;;;27.50;19.97;;;4.00;99.90;;;2.50;100.00;96604.69;5028273;28;20914;-76
2021/12/28 02:29:08;;;;;;;31.60;22.30;;;3.90;99.90;;;2.37;100.00;96591.31;5029841;28;20618;-70
2021/12/28 02:31:35;;;;;;;28.00;20.87;;;3.90;99.90;;;2.21;100.00;96577.28;5029140;28;20505;-70
2021/12/28 02:34:04;;;;;;;30.80;19.50;;;3.90;99.90;;;2.32;100.00;96601.72;5029141;28;20957;-69
2021/12/28 02:36:31;;;;;;;30.57;20.70;;;3.80;99.90;;;2.34;100.00;96611.19;5027927;28;21002;-69
2021/12/28 02:38:59;;;;;;;30.43;21.50;;;3.80;99.90;;;2.35;100.00;96601.31;5027365;28;20464;-73
2021/12/28 02:41:27;;;;;;;31.60;21.97;;;3.80;99.90;;;2.36;100.00;96603.00;5028430;28;20454;-66
2021/12/28 02:44:04;;;;;;;31.13;21.90;;;3.80;99.90;;;2.45;100.00;96601.78;5027097;28;20470;-70
2021/12/28 02:46:32;;;;;;;29.30;20.27;;;3.90;99.90;;;2.60;100.00;96598.16;5028436;28;20457;-69
2021/12/28 02:48:59;;;;;;;29.57;23.30;;;4.00;99.90;;;2.72;100.00;96601.91;5025399;28;20455;-70
2021/12/28 02:51:26;;;;;;;29.23;21.13;;;4.10;99.90;;;2.70;100.00;96606.63;5028563;28;20558;-72
2021/12/28 02:53:53;;;;;;;36.50;23.03;;;4.10;99.90;;;2.25;100.00;96541.22;5026603;28;20982;-69
2021/12/28 02:56:22;;;;;;;30.97;22.07;;;4.10;99.90;;;2.62;100.00;96590.78;5028498;28;20491;-73
2021/12/28 02:58:52;;;;;;;28.30;21.33;;;4.10;99.90;;;2.42;100.00;96586.19;5026930;28;20550;-68
2021/12/28 03:01:22;;;;;;;34.33;20.70;;;4.00;99.90;;;2.51;100.00;96587.69;5043699;28;20534;-69
2021/12/28 03:03:52;;;;;;;31.73;21.70;;;4.00;99.90;;;2.40;100.00;96582.91;5027866;28;20494;-70
2021/12/28 03:06:22;;;;;;;28.17;20.83;;;4.00;99.90;;;2.46;100.00;96575.97;5025944;28;20446;-67
2021/12/28 03:08:53;;;;;;;33.53;22.57;;;4.00;99.90;;;2.46;100.00;96583.97;5026086;28;20483;-68
2021/12/28 03:11:23;;;;;;;29.93;22.00;;;4.00;99.90;;;2.40;100.00;96572.25;5027786;28;20887;-71
2021/12/28 03:13:52;;;;;;;28.27;21.23;;;3.90;99.90;;;2.38;100.00;96563.63;5027158;28;20549;-67
2021/12/28 03:16:22;;;;;;;32.07;21.70;;;3.90;99.90;;;2.26;100.00;96574.00;5028238;28;21014;-70
2021/12/28 03:18:51;;;;;;;28.60;20.93;;;3.80;99.90;;;2.23;100.00;96556.59;5026213;28;20513;-69
2021/12/28 03:21:21;;;;;;;33.90;21.77;;;3.70;99.90;;;1.91;100.00;96505.63;5032241;28;21132;-71
2021/12/28 03:23:49;;;;;;;34.10;22.10;;;3.80;99.90;;;2.27;100.00;96549.00;5042121;28;20533;-70
2021/12/28 03:26:16;;;;;;;31.97;23.50;;;3.80;99.90;;;2.26;100.00;96552.69;5028648;28;20447;-66
2021/12/28 03:28:46;;;;;;;31.90;22.73;;;3.80;99.90;;;2.33;100.00;96563.38;5026727;28;20823;-71
2021/12/28 03:31:15;;;;;;;35.60;22.63;;;3.80;99.90;;;2.34;100.00;96544.53;5027050;28;20455;-70
2021/12/28 03:33:46;;;;;;;37.27;23.67;;;3.80;99.90;;;2.27;100.00;96541.00;5026149;28;20837;-66
2021/12/28 03:36:16;;;;;;;32.20;22.57;;;3.80;99.90;;;1.91;100.00;96489.63;5025228;28;20461;-71
2021/12/28 03:38:44;;;;;;;34.03;22.30;;;3.80;99.90;;;2.23;100.00;96535.28;5025245;28;20942;-71
2021/12/28 03:41:13;;;;;;;34.63;23.83;;;3.80;99.90;;;2.33;100.00;96539.41;5026017;28;20459;-67
2021/12/28 03:43:46;;;;;;;36.77;23.10;;;3.80;99.90;;;2.33;100.00;96526.06;5026360;28;20816;-70
2021/12/28 03:46:14;;;;;;;35.90;24.90;;;3.80;99.90;;;2.28;100.00;96518.69;5027318;28;20451;-71
2021/12/28 03:48:42;;;;;;;36.80;24.83;;;3.80;99.90;;;2.33;100.00;96526.06;5027738;28;20546;-71
2021/12/28 03:51:10;;;;;;;35.83;24.50;;;3.80;99.90;;;2.40;100.00;96538.41;5027506;28;20729;-67
2021/12/28 03:53:37;;;;;;;41.47;24.83;;;3.90;99.90;;;2.46;100.00;96533.31;5027399;28;20479;-72
2021/12/28 03:56:08;;;;;;;37.53;26.00;;;4.00;99.90;;;2.55;100.00;96532.91;5026335;28;20467;-68
2021/12/28 03:58:36;;;;;;;36.27;24.20;;;4.10;99.90;;;2.61;100.00;96519.78;5027873;28;20465;-68
2021/12/28 04:01:05;;;;;;;37.77;25.03;;;4.10;99.90;;;2.69;100.00;96530.28;5027279;28;20550;-71
2021/12/28 04:03:32;;;;;;;38.70;25.27;;;4.20;99.90;;;2.76;100.00;96528.44;5027281;28;20463;-69
2021/12/28 04:06:07;;;;;;;35.00;23.47;;;4.30;99.90;;;2.68;100.00;96509.97;5024425;28;20481;-68
2021/12/28 04:08:35;;;;;;;35.00;25.00;;;4.30;99.90;;;2.79;100.00;96522.69;5026093;28;20462;-67
2021/12/28 04:11:14;;;;;;;41.77;26.70;;;4.30;99.90;;;2.87;100.00;96504.88;5043713;28;20483;-68
2021/12/28 04:13:42;;;;;;;38.83;25.00;;;4.30;99.90;;;2.75;100.00;96478.00;5026583;28;20482;-69
2021/12/28 04:16:11;;;;;;;38.27;23.57;;;4.30;99.90;;;2.81;100.00;96487.84;5042648;28;20985;-69
2021/12/28 04:18:38;;;;;;;42.23;25.70;;;4.30;99.90;;;2.75;100.00;96489.47;5026148;28;20475;-68
2021/12/28 04:21:05;;;;;;;44.13;24.27;;;4.30;99.90;;;2.76;100.00;96479.63;5026969;28;20542;-68
2021/12/28 04:23:32;;;;;;;45.43;25.37;;;4.30;99.90;;;2.74;100.00;96476.34;5026615;28;20466;-68
2021/12/28 04:25:59;;;;;;;43.30;25.27;;;4.30;99.90;;;2.78;100.00;96475.72;5027345;28;20462;-70
2021/12/28 04:28:26;;;;;;;43.23;24.40;;;4.30;99.90;;;2.83;100.00;96481.28;5026079;28;20561;-69
2021/12/28 04:30:54;;;;;;;45.17;27.10;;;4.30;99.90;;;2.87;100.00;96481.66;5026955;28;20968;-72
2021/12/28 04:33:22;;;;;;;48.47;26.73;;;4.30;99.90;;;2.87;100.00;96478.19;5024386;28;20486;-71
2021/12/28 04:35:50;;;;;;;42.90;24.03;;;4.40;99.90;;;2.91;100.00;96487.44;5027960;28;20494;-72
2021/12/28 04:38:17;;;;;;;49.03;25.20;;;4.40;99.90;;;2.86;100.00;96487.22;5023774;28;20580;-67
2021/12/28 04:40:44;;;;;;;47.47;26.90;;;4.40;99.90;;;2.95;100.00;96497.50;5040747;28;20896;-68
2021/12/28 04:43:13;;;;;;;44.60;26.30;;;4.40;99.90;;;2.83;100.00;96499.94;5024536;28;20471;-67
2021/12/28 04:45:40;;;;;;;51.37;26.83;;;4.40;99.90;;;2.92;100.00;96505.06;5026626;28;20470;-71
2021/12/28 04:48:08;;;;;;;44.10;24.33;;;4.40;99.90;;;2.88;100.00;96498.50;5026637;28;20553;-68
2021/12/28 04:50:40;;;;;;;41.47;24.57;;;4.40;99.90;;;2.92;100.00;96499.75;5027345;28;20479;-68
2021/12/28 04:53:10;;;;;;;50.07;28.20;;;4.40;99.90;;;2.96;100.00;96495.66;5026911;28;20819;-71
2021/12/28 04:55:38;;;;;;;45.87;26.50;;;4.40;99.90;;;2.98;100.00;96491.75;5025345;28;20451;-67
2021/12/28 04:58:05;;;;;;;42.87;25.47;;;4.50;99.90;;;3.04;100.00;96497.31;5025286;28;20498;-66
2021/12/28 05:00:33;;;;;;;47.27;26.00;;;4.50;99.90;;;3.05;100.00;96497.09;5028646;28;20555;-71
2021/12/28 05:03:00;;;;;;;46.60;28.07;;;4.50;99.90;;;3.02;100.00;96516.19;5026070;28;20956;-67
2021/12/28 05:05:28;;;;;;;45.57;25.80;;;4.50;99.90;;;3.03;100.00;96512.47;5025164;28;20545;-75
2021/12/28 05:07:56;;;;;;;48.43;27.33;;;4.50;99.90;;;3.08;100.00;96509.22;5026418;28;20560;-71
2021/12/28 05:10:23;;;;;;;42.80;23.40;;;4.50;99.90;;;3.04;100.00;96508.78;5029195;28;20545;-71
2021/12/28 05:12:51;;;;;;;44.20;24.00;;;4.50;99.90;;;2.91;100.00;96485.59;5027481;28;20473;-67
2021/12/28 05:15:18;;;;;;;39.67;25.23;;;4.50;99.90;;;3.18;100.00;96492.78;5026088;28;20952;-72
2021/12/28 05:17:46;;;;;;;42.87;24.23;;;4.60;99.90;;;3.04;100.00;96498.13;5025986;28;20471;-69
2021/12/28 05:20:14;;;;;;;44.43;24.57;;;4.50;99.90;;;3.00;100.00;96507.56;5025170;28;20554;-70
2021/12/28 05:22:41;;;;;;;48.50;25.40;;;4.50;99.90;;;3.05;100.00;96505.09;5025442;28;20455;-68
2021/12/28 05:25:10;;;;;;;43.83;24.23;;;4.50;99.90;;;3.11;100.00;96492.78;5025295;28;20558;-67
2021/12/28 05:27:37;;;;;;;51.90;24.80;;;4.60;99.90;;;3.12;100.00;96486.41;5025865;28;20557;-72
2021/12/28 05:30:08;;;;;;;43.93;26.40;;;4.60;99.90;;;3.08;100.00;96475.31;5026770;28;20520;-68
2021/12/28 05:32:35;;;;;;;43.47;23.47;;;4.60;99.90;;;2.63;100.00;96395.91;5026978;28;20518;-71
2021/12/28 05:35:04;;;;;;;41.80;24.30;;;4.60;99.90;;;3.04;100.00;96466.09;5030048;28;20556;-70
2021/12/28 05:37:31;;;;;;;43.40;24.70;;;4.60;99.90;;;3.10;100.00;96473.25;5030744;28;20548;-69
2021/12/28 05:39:58;;;;;;;45.23;24.07;;;4.50;99.90;;;3.06;100.00;96479.25;5028171;28;20462;-73
2021/12/28 05:42:26;;;;;;;45.80;23.80;;;4.60;99.90;;;3.02;100.00;96462.81;5029352;28;20501;-68
2021/12/28 05:44:53;;;;;;;40.97;23.10;;;4.60;99.90;;;3.28;100.00;96471.84;5029594;28;20458;-67
2021/12/28 05:47:20;;;;;;;44.80;24.40;;;4.60;99.90;;;3.23;100.00;96472.47;5029210;28;21036;-68
2021/12/28 05:49:48;;;;;;;45.97;24.73;;;4.70;99.90;;;3.25;100.00;96472.22;5029685;28;20467;-68
2021/12/28 05:52:15;;;;;;;44.60;24.70;;;4.70;99.90;;;3.23;100.00;96464.44;5029061;28;20623;-69
2021/12/28 05:54:42;;;;;;;47.40;24.63;;;4.70;99.90;;;3.25;100.00;96457.06;5030910;28;20556;-69
2021/12/28 05:57:09;;;;;;;40.00;23.70;;;4.70;99.90;;;3.30;100.00;96464.44;5027051;28;20489;-68
2021/12/28 05:59:38;;;;;;;42.50;24.03;;;4.70;99.90;;;3.20;100.00;96448.84;5029115;28;20465;-66
2021/12/28 06:02:07;;;;;;;38.20;23.37;;;4.70;99.90;;;3.25;100.00;96461.56;5027834;28;20478;-68
2021/12/28 06:04:34;;;;;;;39.87;22.37;;;4.70;99.90;;;2.30;100.00;96311.41;5038761;28;21027;-66
2021/12/28 06:07:01;;;;;;;42.10;23.27;;;4.70;99.90;;;3.30;100.00;96458.28;5024921;28;20466;-71
2021/12/28 06:09:28;;;;;;;38.20;21.47;;;4.70;99.90;;;3.26;100.00;96453.34;5028308;28;20450;-69
2021/12/28 06:11:55;;;;;;;40.87;23.70;;;4.70;99.90;;;3.29;100.00;96452.13;5029692;28;20763;-69
2021/12/28 06:14:22;;;;;;;35.13;21.27;;;4.80;99.90;;;3.31;100.00;96447.41;5029072;28;20569;-69
2021/12/28 06:16:51;;;;;;;37.87;21.63;;;4.80;99.90;;;3.29;100.00;96444.13;5027903;28;20558;-70
2021/12/28 06:19:18;;;;;;;40.70;22.70;;;4.70;99.90;;;3.25;100.00;96445.53;5027788;28;21001;-72
2021/12/28 06:21:45;;;;;;;40.87;21.60;;;4.70;99.90;;;3.24;100.00;96438.56;5029243;28;21023;-68
2021/12/28 06:24:12;;;;;;;44.63;21.00;;;4.70;99.90;;;3.31;100.00;96444.72;5029727;28;20912;-70
2021/12/28 06:26:39;;;;;;;34.17;21.27;;;4.80;99.90;;;3.21;100.00;96434.47;5043399;28;20473;-78
2021/12/28 06:29:08;;;;;;;37.93;22.93;;;4.70;99.90;;;3.27;100.00;96456.84;5044015;28;20443;-70
2021/12/28 06:31:36;;;;;;;36.13;22.30;;;4.70;99.90;;;3.30;100.00;96448.44;5044036;28;20901;-68
2021/12/28 06:34:07;;;;;;;30.80;21.43;;;4.80;99.90;;;3.28;100.00;96449.66;5028607;28;20524;-67
2021/12/28 06:36:34;;;;;;;40.40;22.77;;;4.80;99.90;;;3.34;100.00;96460.31;5029074;28;20474;-67
2021/12/28 06:39:01;;;;;;;32.70;21.17;;;4.80;99.90;;;3.32;100.00;96459.72;5026873;28;20965;-68
2021/12/28 06:41:28;;;;;;;34.80;21.00;;;4.80;99.90;;;3.33;100.00;96468.53;5030064;28;20541;-69
2021/12/28 06:43:55;;;;;;;35.60;21.43;;;4.80;99.90;;;3.28;100.00;96471.00;5028335;28;20447;-70
2021/12/28 06:46:22;;;;;;;31.90;20.83;;;4.80;99.90;;;3.26;100.00;96460.53;5026955;28;20575;-67
2021/12/28 06:48:49;;;;;;;32.60;20.33;;;4.70;99.90;;;3.17;100.00;96467.13;5026534;28;20570;-71
2021/12/28 06:51:17;;;;;;;34.90;21.33;;;4.70;99.90;;;3.23;100.00;96458.28;5029638;28;20498;-66
2021/12/28 06:53:45;;;;;;;38.33;22.93;;;4.70;99.90;;;3.14;100.00;96454.19;5029731;28;20811;-69
2021/12/28 06:56:12;;;;;;;35.60;20.27;;;4.60;99.90;;;3.10;100.00;96457.25;5028830;28;20861;-70
2021/12/28 06:58:40;;;;;;;28.27;20.33;;;4.60;99.90;;;3.13;100.00;96452.56;5025602;28;20466;-69
2021/12/28 07:01:08;;;;;;;36.53;22.93;;;4.60;99.90;;;2.89;100.00;96415.63;5025190;28;20462;-72
2021/12/28 07:03:35;;;;;;;32.10;21.07;;;4.60;99.90;;;3.18;100.00;96445.53;5027984;28;20467;-71
2021/12/28 07:06:03;;;;;;;37.03;21.20;;;4.70;99.90;;;3.31;100.00;96443.88;5031918;28;20458;-73
2021/12/28 07:08:31;;;;;;;29.80;20.60;;;4.70;99.90;;;2.89;100.00;96393.44;5028329;28;20562;-72
2021/12/28 07:10:58;;;;;;;33.87;20.07;;;4.70;99.90;;;3.11;100.00;96434.91;5029058;28;20463;-71
2021/12/28 07:13:25;;;;;;;30.30;19.90;;;4.60;99.90;;;3.16;100.00;96436.13;5027901;28;20569;-72
2021/12/28 07:15:52;;;;;;;32.57;22.07;;;4.60;99.90;;;3.15;100.00;96435.28;5029261;28;20558;-73
2021/12/28 07:18:20;;;;;;;32.37;19.30;;;4.60;99.90;;;3.27;100.00;96438.16;5026382;28;20451;-72
2021/12/28 07:20:48;;;;;;;32.80;19.83;;;4.70;99.90;;;3.18;100.00;96429.53;5028929;28;20458;-70
2021/12/28 07:23:15;;;;;;;29.30;18.73;;;4.70;99.90;;;3.04;100.00;96423.41;5025364;28;20467;-70
2021/12/28 07:25:44;;;;;;;34.30;20.10;;;4.60;99.90;;;3.06;100.00;96426.69;5043809;28;20456;-75
2021/12/28 07:28:11;;;;;;;32.23;20.47;;;4.50;99.90;;;3.00;100.00;96437.34;5025786;28;20447;-71
2021/12/28 07:30:39;;;;;;;32.00;19.70;;;4.50;99.90;;;3.01;100.00;96433.66;5028186;28;20520;-70
2021/12/28 07:33:06;;;;;;;28.67;19.07;;;4.50;99.90;;;3.03;100.00;96437.75;5027258;28;20653;-70
2021/12/28 07:35:33;;;;;;;30.37;18.80;;;4.50;99.90;;;3.01;100.00;96429.16;5027043;28;20562;-71
2021/12/28 07:38:00;;;;;;;29.43;18.30;;;4.50;99.90;;;3.10;100.00;96430.56;5027506;28;20474;-71
2021/12/28 07:40:27;;;;;;;28.77;18.80;;;4.50;99.90;;;2.98;100.00;96426.91;5031151;28;20466;-72
2021/12/28 07:42:56;;;;;;;31.43;18.00;;;4.50;99.90;;;2.86;100.00;96434.69;5025340;28;20443;-72
2021/12/28 07:45:23;;;;;;;27.60;18.80;;;4.40;99.90;;;2.84;100.00;96418.06;5026900;28;20529;-72
2021/12/28 07:47:50;;;;;;;27.43;19.40;;;4.40;99.90;;;2.88;100.00;96431.81;5027445;28;20455;-70
2021/12/28 07:50:20;;;;;;;28.63;18.93;;;4.40;99.90;;;2.78;100.00;96433.03;5028695;28;20473;-70
2021/12/28 07:52:48;;;;;;;28.57;17.73;;;4.30;99.90;;;2.97;100.00;96439.41;5046674;28;20455;-73
2021/12/28 07:55:17;;;;;;;25.80;18.40;;;4.30;99.90;;;2.77;100.00;96428.72;5042639;28;20637;-73
2021/12/28 07:57:44;;;;;;;29.80;18.03;;;4.30;99.90;;;2.75;100.00;96441.44;5022950;28;20571;-72
2021/12/28 08:00:18;;;;;;;26.13;18.70;;;4.30;99.90;;;2.75;100.00;96446.78;5026893;28;20482;-70
2021/12/28 08:02:46;;;;;;;28.37;17.43;;;4.30;99.90;;;2.86;100.00;96439.22;5027200;28;21002;-70
2021/12/28 08:05:15;;;;;;;22.77;17.00;;;4.30;99.90;;;2.80;100.00;96444.31;5029586;28;20573;-71
2021/12/28 08:07:43;;;;;;;23.33;17.27;;;4.30;99.90;;;2.73;100.00;96432.84;5026254;28;20935;-72
2021/12/28 08:10:12;;;;;;;24.80;17.33;;;4.30;99.90;;;2.97;100.00;96449.28;5022151;28;20466;-74
2021/12/28 08:12:39;;;;;;;27.77;17.47;;;4.30;99.90;;;2.89;100.00;96465.47;5025142;28;20509;-71
2021/12/28 08:15:08;;;;;;;23.60;16.30;;;4.40;99.90;;;2.97;100.00;96459.94;5028686;28;20485;-73
2021/12/28 08:17:36;;;;;;;27.83;17.90;;;4.40;99.90;;;2.95;100.00;96456.63;5024583;28;20498;-71
2021/12/28 08:20:05;;;;;;;22.50;16.60;;;4.40;99.90;;;3.08;100.00;96461.97;5043702;28;20554;-70
2021/12/28 08:22:32;;;;;;;21.23;16.10;;;4.40;99.90;;;3.11;100.00;96450.91;5025498;28;20467;-73
2021/12/28 08:25:00;;;;;;;19.77;15.57;;;4.60;99.90;;;3.07;100.00;96449.66;5028878;28;20491;-72
2021/12/28 08:27:27;;;;;;;22.60;16.00;;;4.50;99.90;;;3.08;100.00;96435.28;5039780;28;20463;-71
2021/12/28 08:29:54;;;;;;;25.83;18.03;;;4.50;99.90;;;3.16;100.00;96450.28;5027073;28;20449;-73
2021/12/28 08:32:21;;;;;;;19.67;15.03;;;4.60;99.90;;;3.06;100.00;96437.34;5045758;28;20864;-74
2021/12/28 08:34:50;;;;;;;21.43;15.30;;;4.50;99.90;;;2.90;100.00;96441.28;5046004;28;20490;-73
2021/12/28 08:37:17;;;;;;;24.00;16.93;;;4.40;99.90;;;3.07;100.00;96439.00;5030550;28;20534;-73
2021/12/28 08:39:44;;;;;;;18.80;15.03;;;4.50;99.90;;;3.08;99.89;96437.97;5028851;28;20462;-73
2021/12/28 08:42:11;;;;;;;22.73;15.13;;;4.60;99.90;;;3.17;99.91;96445.78;5026651;28;20938;-71
2021/12/28 08:44:38;;;;;;;21.00;14.57;;;4.60;99.90;;;2.99;100.00;96436.53;5027089;28;20545;-72
2021/12/28 08:47:06;;;;;;;19.20;15.73;;;4.50;99.90;;;2.98;100.00;96435.72;5024037;28;20455;-74
2021/12/28 08:49:33;;;;;;;23.70;15.40;;;4.50;99.90;;;3.06;100.00;96426.69;5027001;28;20587;-75
2021/12/28 08:52:01;;;;;;;21.10;14.67;;;4.50;99.90;;;3.10;100.00;96419.88;5027067;28;20494;-73
2021/12/28 08:54:28;;;;;;;18.53;13.40;;;4.50;99.90;;;3.05;100.00;96413.56;5024511;28;21051;-72
2021/12/28 08:56:55;;;;;;;19.40;13.53;;;4.50;99.90;;;3.04;100.00;96396.72;5026070;28;20517;-73
2021/12/28 08:59:22;;;;;;;20.97;14.20;;;4.50;99.90;;;3.07;100.00;96401.63;5028482;28;21021;-73
2021/12/28 09:01:50;;;;;;;23.10;14.10;;;4.60;99.90;;;3.20;100.00;96399.97;5025305;28;20458;-70
2021/12/28 09:04:18;;;;;;;20.10;13.43;;;4.60;99.90;;;3.16;100.00;96410.22;5033215;28;20473;-73
2021/12/28 09:06:46;;;;;;;14.60;11.90;;;4.70;99.90;;;3.43;99.96;96388.03;5026086;28;20482;-76
2021/12/28 09:09:15;;;;;;;16.10;11.20;;;4.80;99.90;;;3.65;98.43;96396.59;5029724;28;20486;-71
2021/12/28 09:11:42;;;;;;;14.67;11.63;;;5.00;99.90;;;3.61;98.53;96390.84;5030657;28;20529;-73
2021/12/28 09:14:10;;;;;;;14.37;10.70;;;5.00;99.90;;;3.67;99.20;96389.19;5031140;28;20470;-72
2021/12/28 09:16:37;;;;;;;15.63;10.93;;;5.10;99.80;;;3.64;98.71;96401.09;5030519;28;20550;-74
2021/12/28 09:19:05;;;;;;;13.23;9.33;;;5.10;99.80;;;3.64;99.31;96382.41;5046116;28;20471;-71
2021/12/28 09:21:32;;;;;;;10.30;8.10;;;5.10;99.90;;;3.60;98.45;96386.53;5030184;28;20728;-73
2021/12/28 09:23:59;;;;;;;10.37;9.17;;;5.10;99.60;;;3.63;98.35;96383.44;5031513;28;20925;-70
2021/12/28 09:26:27;;;;;;;10.20;8.90;;;5.10;99.40;;;3.61;99.03;96385.50;5031450;28;20475;-74
2021/12/28 09:28:54;;;;;;;10.07;7.60;;;5.10;99.80;;;3.76;98.34;96381.75;5029762;28;20891;-72
2021/12/28 09:31:21;;;;;;;14.07;8.30;;;5.10;99.90;;;3.85;98.58;96380.44;5031493;28;20604;-71
2021/12/28 09:33:48;;;;;;;9.90;7.80;;;5.20;99.40;;;3.91;98.20;96371.59;5029758;28;20466;-70
2021/12/28 09:36:16;;;;;;;8.33;7.23;;;5.30;99.10;;;4.03;97.44;96365.59;5031904;28;21023;-71
2021/12/28 09:38:43;;;;;;;10.20;6.53;;;5.40;97.00;;;3.91;97.22;96376.94;5029228;28;20467;-71
2021/12/28 09:41:11;;;;;;;7.30;6.60;;;5.40;97.00;;;3.84;97.77;96368.13;5028814;28;20748;-75
2021/12/28 09:43:40;;;;;;;7.10;6.40;;;5.30;98.10;;;3.89;97.57;96379.00;5028369;28;20465;-72
2021/12/28 09:46:07;;;;;;;7.27;6.10;;;5.30;98.20;;;4.02;96.63;96374.59;5024518;28;20533;-71
2021/12/28 09:48:34;;;;;;;8.03;7.23;;;5.40;97.00;;;4.11;96.40;96366.16;5045179;28;20588;-72
2021/12/28 09:51:02;;;;;;;7.57;6.50;;;5.50;96.50;;;4.30;96.25;96354.72;5030499;28;20455;-74
2021/12/28 09:53:29;;;;;;;8.27;6.37;;;5.70;96.60;;;4.56;95.07;96356.38;5045426;28;20725;-73
2021/12/28 09:55:56;;;;;;;7.93;6.23;;;5.90;95.10;;;4.36;94.94;96353.84;5030303;28;20530;-72
2021/12/28 09:58:23;;;;;;;8.00;5.50;;;5.90;93.60;;;4.33;94.44;96351.63;5028032;28;20516;-72
2021/12/28 10:00:52;;;;;;;6.00;5.30;;;5.90;93.50;;;4.21;95.96;96346.97;5027502;28;20471;-73
2021/12/28 10:03:19;;;;;;;7.73;5.60;;;5.70;95.10;;;4.29;96.19;96353.91;5032007;28;20949;-72
2021/12/28 10:05:46;;;;;;;7.73;5.20;;;5.70;95.40;;;4.31;96.45;96345.66;5027428;28;20463;-73
2021/12/28 10:08:13;;;;;;;6.87;5.80;;;5.70;96.20;;;4.46;95.70;96345.34;5043717;28;20546;-72
2021/12/28 10:10:44;;;;;;;7.90;5.23;;;5.80;95.60;;;4.31;96.12;96343.81;5029835;28;20557;-72
2021/12/28 10:13:19;;;;;;;5.97;5.37;;;5.80;95.50;;;4.36;96.37;96337.81;5044652;28;20529;-71
2021/12/28 10:15:51;;;;;;;5.73;5.13;;;5.90;95.90;;;4.45;96.21;96339.16;5028157;28;20470;-71
2021/12/28 10:18:19;;;;;;;5.93;5.33;;;5.90;95.60;;;4.43;96.29;96335.91;5028036;28;20963;-74